createdAt,value
2023-05-12T00:00:41.900Z,99.99
2023-05-12T00:01:41.866Z,99.99
2023-05-12T00:02:41.936Z,99.99
2023-05-12T00:03:41.999Z,99.99
2023-05-12T00:04:41.860Z,99.99
2023-05-12T00:05:41.821Z,99.99
2023-05-12T00:06:41.845Z,99.99
2023-05-12T00:07:41.758Z,99.99
2023-05-12T00:08:41.807Z,99.99
2023-05-12T00:09:41.795Z,99.99
2023-05-12T00:10:41.752Z,99.99
2023-05-12T00:11:41.732Z,99.99
2023-05-12T00:12:41.708Z,99.99
2023-05-12T00:13:41.767Z,99.99
2023-05-12T00:14:41.686Z,99.99
2023-05-12T00:15:41.691Z,99.99
2023-05-12T00:16:41.729Z,99.99
2023-05-12T00:18:02.695Z,99.99
2023-05-12T00:18:41.676Z,99.99
2023-05-12T00:19:41.669Z,99.99
2023-05-12T00:20:41.616Z,99.99
2023-05-12T00:21:41.637Z,99.99
2023-05-12T00:22:41.571Z,99.99
2023-05-12T00:23:41.603Z,99.99
2023-05-12T00:24:41.581Z,99.99
2023-05-12T00:25:41.551Z,99.99
2023-05-12T00:26:41.561Z,99.99
2023-05-12T00:27:41.559Z,99.99
2023-05-12T00:28:41.497Z,99.99
2023-05-12T00:29:41.484Z,99.99
2023-05-12T00:30:41.488Z,99.99
2023-05-12T00:31:41.575Z,99.99
2023-05-12T00:32:41.492Z,99.99
2023-05-12T00:33:41.458Z,99.99
2023-05-12T00:34:41.413Z,99.99
2023-05-12T00:35:41.453Z,99.99
2023-05-12T00:36:41.492Z,99.99
2023-05-12T00:37:41.384Z,99.99
2023-05-12T00:38:41.383Z,99.99
2023-05-12T00:39:41.385Z,99.99
2023-05-12T00:40:41.356Z,99.99
2023-05-12T00:41:41.363Z,99.99
2023-05-12T00:42:41.358Z,99.99
2023-05-12T00:43:41.348Z,99.99
2023-05-12T00:44:41.307Z,99.99
2023-05-12T00:45:41.299Z,99.99
2023-05-12T00:46:41.263Z,99.99
2023-05-12T00:47:41.279Z,99.99
2023-05-12T00:48:49.131Z,99.99
2023-05-12T00:49:41.227Z,99.99
2023-05-12T00:50:41.234Z,99.99
2023-05-12T00:51:42.014Z,99.99
2023-05-12T00:52:41.183Z,99.99
2023-05-12T00:53:49.071Z,99.99
2023-05-12T00:54:42.155Z,99.99
2023-05-12T00:55:41.173Z,99.99
2023-05-12T00:56:41.155Z,99.99
2023-05-12T00:57:41.157Z,99.99
2023-05-12T00:58:41.112Z,99.99
2023-05-12T00:59:41.141Z,99.99
2023-05-12T01:00:41.082Z,99.99
2023-05-12T01:01:41.280Z,99.99
2023-05-12T01:02:41.168Z,99.99
2023-05-12T01:03:41.141Z,99.99
2023-05-12T01:04:41.040Z,99.99
2023-05-12T01:05:41.072Z,99.99
2023-05-12T01:06:41.003Z,99.99
2023-05-12T01:07:41.054Z,99.99
2023-05-12T01:08:40.988Z,99.99
2023-05-12T01:09:40.980Z,99.99
2023-05-12T01:10:40.968Z,99.99
2023-05-12T01:11:40.952Z,99.99
2023-05-12T01:12:40.970Z,99.99
2023-05-12T01:13:41.023Z,99.99
2023-05-12T01:14:40.926Z,99.99
2023-05-12T01:15:40.931Z,99.99
2023-05-12T01:16:40.883Z,99.99
2023-05-12T01:17:40.957Z,99.99
2023-05-12T01:18:40.870Z,99.99
2023-05-12T01:19:40.855Z,99.99
2023-05-12T01:20:40.842Z,99.99
2023-05-12T01:21:40.904Z,99.99
2023-05-12T01:22:40.787Z,99.99
2023-05-12T01:23:40.855Z,99.99
2023-05-12T01:24:40.796Z,99.99
2023-05-12T01:25:40.792Z,99.99
2023-05-12T01:26:40.760Z,99.99
2023-05-12T01:27:40.760Z,99.99
2023-05-12T01:28:40.770Z,99.99
2023-05-12T01:29:40.710Z,99.99
2023-05-12T01:30:40.723Z,99.99
2023-05-12T01:31:40.833Z,99.99
2023-05-12T01:32:40.762Z,99.99
2023-05-12T01:33:40.655Z,99.99
2023-05-12T01:34:40.676Z,99.99
2023-05-12T01:35:40.661Z,99.99
2023-05-12T01:36:40.664Z,99.99
2023-05-12T01:37:40.611Z,99.99
2023-05-12T01:38:40.636Z,99.99
2023-05-12T01:39:40.579Z,99.99
2023-05-12T01:40:40.603Z,99.99
2023-05-12T01:41:40.564Z,99.99
2023-05-12T01:42:40.538Z,99.99
2023-05-12T01:43:40.568Z,99.99
2023-05-12T01:44:40.521Z,99.99
2023-05-12T01:45:40.521Z,99.99
2023-05-12T01:46:40.531Z,99.99
2023-05-12T01:47:40.560Z,99.99
2023-05-12T01:48:40.480Z,99.99
2023-05-12T01:49:40.498Z,99.99
2023-05-12T01:50:40.453Z,99.99
2023-05-12T01:51:40.459Z,99.99
2023-05-12T01:52:40.514Z,99.99
2023-05-12T01:53:40.390Z,99.99
2023-05-12T01:54:40.366Z,99.99
2023-05-12T01:55:40.404Z,99.99
2023-05-12T01:56:40.342Z,99.99
2023-05-12T01:57:40.378Z,99.99
2023-05-12T01:58:40.373Z,99.99
2023-05-12T01:59:40.364Z,99.99
2023-05-12T02:00:40.320Z,99.99
2023-05-12T02:01:40.355Z,99.99
2023-05-12T02:02:42.769Z,99.99
2023-05-12T02:03:40.375Z,99.99
2023-05-12T02:04:40.270Z,99.99
2023-05-12T02:05:40.249Z,99.99
2023-05-12T02:06:40.242Z,99.99
2023-05-12T02:07:40.265Z,99.99
2023-05-12T02:08:40.172Z,99.99
2023-05-12T02:09:40.185Z,99.99
2023-05-12T02:10:40.156Z,99.99
2023-05-12T02:11:40.198Z,99.99
2023-05-12T02:12:40.155Z,99.99
2023-05-12T02:13:40.167Z,99.99
2023-05-12T02:14:40.124Z,99.99
2023-05-12T02:15:40.120Z,99.99
2023-05-12T02:16:40.156Z,99.99
2023-05-12T02:17:40.154Z,99.99
2023-05-12T02:18:40.117Z,99.99
2023-05-12T02:19:40.102Z,99.99
2023-05-12T02:20:40.048Z,99.99
2023-05-12T02:21:40.033Z,99.99
2023-05-12T02:22:40.035Z,99.99
2023-05-12T02:23:40.066Z,99.99
2023-05-12T02:24:39.969Z,99.99
2023-05-12T02:25:40.000Z,99.99
2023-05-12T02:26:39.968Z,99.99
2023-05-12T02:27:40.019Z,99.99
2023-05-12T02:28:39.931Z,99.99
2023-05-12T02:29:39.966Z,99.99
2023-05-12T02:30:39.925Z,99.99
2023-05-12T02:31:39.914Z,99.99
2023-05-12T02:32:39.939Z,99.99
2023-05-12T02:33:39.912Z,99.99
2023-05-12T02:34:39.890Z,99.99
2023-05-12T02:35:39.879Z,99.99
2023-05-12T02:36:39.809Z,99.99
2023-05-12T02:37:39.847Z,99.99
2023-05-12T02:38:39.804Z,99.99
2023-05-12T02:39:39.814Z,99.99
2023-05-12T02:40:39.843Z,99.99
2023-05-12T02:41:39.858Z,99.99
2023-05-12T02:42:39.780Z,99.99
2023-05-12T02:43:39.787Z,99.99
2023-05-12T02:44:39.758Z,99.99
2023-05-12T02:45:39.741Z,99.99
2023-05-12T02:46:39.753Z,99.99
2023-05-12T02:47:39.747Z,99.99
2023-05-12T02:48:39.667Z,99.99
2023-05-12T02:49:39.704Z,99.99
2023-05-12T02:50:39.678Z,99.99
2023-05-12T02:51:39.674Z,99.99
2023-05-12T02:52:39.604Z,99.99
2023-05-12T02:53:39.653Z,99.99
2023-05-12T02:54:39.605Z,99.99
2023-05-12T02:55:39.596Z,99.99
2023-05-12T02:56:39.566Z,99.99
2023-05-12T02:57:39.610Z,99.99
2023-05-12T02:58:39.561Z,99.99
2023-05-12T02:59:39.578Z,99.99
2023-05-12T03:00:39.545Z,99.99
2023-05-12T03:01:39.591Z,99.99
2023-05-12T03:02:39.776Z,99.99
2023-05-12T03:03:39.672Z,99.99
2023-05-12T03:04:39.509Z,99.99
2023-05-12T03:05:39.476Z,99.99
2023-05-12T03:06:39.453Z,99.99
2023-05-12T03:07:39.480Z,99.99
2023-05-12T03:08:39.412Z,99.99
2023-05-12T03:09:39.464Z,99.99
2023-05-12T03:10:39.391Z,99.99
2023-05-12T03:11:39.393Z,99.99
2023-05-12T03:12:39.461Z,99.99
2023-05-12T03:13:39.382Z,99.99
2023-05-12T03:14:39.326Z,99.99
2023-05-12T03:15:39.356Z,99.99
2023-05-12T03:16:39.340Z,99.99
2023-05-12T03:17:39.381Z,99.99
2023-05-12T03:18:39.319Z,99.99
2023-05-12T03:19:39.299Z,99.99
2023-05-12T03:20:39.285Z,99.99
2023-05-12T03:21:39.282Z,99.99
2023-05-12T03:22:39.251Z,99.99
2023-05-12T03:23:39.271Z,99.99
2023-05-12T03:24:39.269Z,99.99
2023-05-12T03:25:39.194Z,99.99
2023-05-12T03:26:39.187Z,99.99
2023-05-12T03:27:39.209Z,99.99
2023-05-12T03:28:39.202Z,99.99
2023-05-12T03:29:39.158Z,99.99
2023-05-12T03:30:39.117Z,99.99
2023-05-12T03:31:39.187Z,99.99
2023-05-12T03:32:39.305Z,99.99
2023-05-12T03:33:39.087Z,99.99
2023-05-12T03:34:39.077Z,99.99
2023-05-12T03:35:39.077Z,99.99
2023-05-12T03:36:39.056Z,99.99
2023-05-12T03:37:39.096Z,99.99
2023-05-12T03:38:39.047Z,99.99
2023-05-12T03:39:39.021Z,99.99
2023-05-12T03:40:39.004Z,99.99
2023-05-12T03:41:38.980Z,99.99
2023-05-12T03:42:38.963Z,99.99
2023-05-12T03:43:38.987Z,99.99
2023-05-12T03:44:38.939Z,99.99
2023-05-12T03:45:38.976Z,99.99
2023-05-12T03:46:38.981Z,99.99
2023-05-12T03:47:39.012Z,99.99
2023-05-12T03:48:38.887Z,99.99
2023-05-12T03:49:38.876Z,99.99
2023-05-12T03:50:38.852Z,99.99
2023-05-12T03:51:38.889Z,99.99
2023-05-12T03:52:38.896Z,99.99
2023-05-12T03:53:38.836Z,99.99
2023-05-12T03:54:38.814Z,99.99
2023-05-12T03:55:38.815Z,99.99
2023-05-12T03:56:38.800Z,99.99
2023-05-12T03:57:38.828Z,99.99
2023-05-12T03:58:38.757Z,99.99
2023-05-12T03:59:38.774Z,99.99
2023-05-12T04:00:39.050Z,99.99
2023-05-12T04:01:38.814Z,99.99
2023-05-12T04:02:38.897Z,99.99
2023-05-12T04:03:38.817Z,99.99
2023-05-12T04:04:38.785Z,99.99
2023-05-12T04:05:38.688Z,99.99
2023-05-12T04:06:38.690Z,99.99
2023-05-12T04:07:38.631Z,99.99
2023-05-12T04:08:41.088Z,99.99
2023-05-12T04:09:38.655Z,99.99
2023-05-12T04:10:38.618Z,99.99
2023-05-12T04:11:38.618Z,99.99
2023-05-12T04:12:38.617Z,99.99
2023-05-12T04:13:38.561Z,99.99
2023-05-12T04:14:42.818Z,99.99
2023-05-12T04:15:38.567Z,99.99
2023-05-12T04:16:38.553Z,99.99
2023-05-12T04:17:38.561Z,99.99
2023-05-12T04:18:38.515Z,99.99
2023-05-12T04:19:38.484Z,99.99
2023-05-12T04:20:38.474Z,99.99
2023-05-12T04:21:38.457Z,99.99
2023-05-12T04:22:38.464Z,99.99
2023-05-12T04:23:38.489Z,99.99
2023-05-12T04:24:38.449Z,99.99
2023-05-12T04:25:38.406Z,99.99
2023-05-12T04:26:38.392Z,99.99
2023-05-12T04:27:38.376Z,99.99
2023-05-12T04:28:38.405Z,99.99
2023-05-12T04:29:38.340Z,99.99
2023-05-12T04:30:38.409Z,99.99
2023-05-12T04:31:38.418Z,99.99
2023-05-12T04:32:38.368Z,99.99
2023-05-12T04:33:38.288Z,99.99
2023-05-12T04:34:38.380Z,99.99
2023-05-12T04:35:38.263Z,99.99
2023-05-12T04:36:38.285Z,99.99
2023-05-12T04:37:38.257Z,99.99
2023-05-12T04:38:38.251Z,99.99
2023-05-12T04:39:38.217Z,99.99
2023-05-12T04:40:38.254Z,99.99
2023-05-12T04:41:38.210Z,99.99
2023-05-12T04:42:38.177Z,99.99
2023-05-12T04:44:38.158Z,99.99
2023-05-12T04:45:38.186Z,99.99
2023-05-12T04:46:38.310Z,99.99
2023-05-12T04:47:38.167Z,99.99
2023-05-12T04:48:38.100Z,99.99
2023-05-12T04:49:38.113Z,99.99
2023-05-12T04:50:38.137Z,99.99
2023-05-12T04:51:38.107Z,99.99
2023-05-12T04:52:38.075Z,99.99
2023-05-12T04:53:38.041Z,99.99
2023-05-12T04:54:38.034Z,99.99
2023-05-12T04:55:38.008Z,99.99
2023-05-12T04:56:38.023Z,99.99
2023-05-12T04:57:37.994Z,99.99
2023-05-12T04:58:38.011Z,99.99
2023-05-12T04:59:39.911Z,99.99
2023-05-12T05:00:37.946Z,99.99
2023-05-12T05:01:37.991Z,99.99
2023-05-12T05:02:38.030Z,99.99
2023-05-12T05:03:38.051Z,99.99
2023-05-12T05:04:37.900Z,99.99
2023-05-12T05:05:37.880Z,99.99
2023-05-12T05:06:37.866Z,99.99
2023-05-12T05:07:37.886Z,99.99
2023-05-12T05:08:37.885Z,99.99
2023-05-12T05:09:37.839Z,99.99
2023-05-12T05:10:37.839Z,99.99
2023-05-12T05:11:37.814Z,99.99
2023-05-12T05:12:37.802Z,99.99
2023-05-12T05:13:37.774Z,99.99
2023-05-12T05:14:37.813Z,99.99
2023-05-12T05:15:37.744Z,99.99
2023-05-12T05:16:37.782Z,99.99
2023-05-12T05:17:37.734Z,99.99
2023-05-12T05:18:37.808Z,99.88
2023-05-12T05:19:48.255Z,99.67
2023-05-12T05:20:40.781Z,99.67
2023-05-12T05:21:37.700Z,99.57
2023-05-12T05:22:37.689Z,99.57
2023-05-12T05:23:37.681Z,99.67
2023-05-12T05:24:37.682Z,99.47
2023-05-12T05:25:37.620Z,99.37
2023-05-12T05:26:37.648Z,99.27
2023-05-12T05:27:37.612Z,99.27
2023-05-12T05:28:37.630Z,99.37
2023-05-12T05:29:37.617Z,99.37
2023-05-12T05:30:37.610Z,99.27
2023-05-12T05:31:37.583Z,99.16
2023-05-12T05:32:37.778Z,99.11
2023-05-12T05:33:37.525Z,99.02
2023-05-12T05:34:37.634Z,98.71
2023-05-12T05:35:37.534Z,98.71
2023-05-12T05:36:37.519Z,98.71
2023-05-12T05:37:37.460Z,98.61
2023-05-12T05:38:37.518Z,98.50
2023-05-12T05:39:37.464Z,98.71
2023-05-12T05:40:49.303Z,98.71
2023-05-12T05:41:38.461Z,98.71
2023-05-12T05:42:37.408Z,98.71
2023-05-12T05:43:37.407Z,98.71
2023-05-12T05:44:37.371Z,98.71
2023-05-12T05:45:37.351Z,98.71
2023-05-12T05:46:37.408Z,98.61
2023-05-12T05:47:37.401Z,98.41
2023-05-12T05:48:37.416Z,97.80
2023-05-12T05:49:37.287Z,97.08
2023-05-12T05:50:37.300Z,97.19
2023-05-12T05:51:37.312Z,97.08
2023-05-12T05:52:37.266Z,96.98
2023-05-12T05:53:37.301Z,96.88
2023-05-12T05:54:37.283Z,96.58
2023-05-12T05:55:37.243Z,96.37
2023-05-12T05:56:37.258Z,96.27
2023-05-12T05:57:37.201Z,95.66
2023-05-12T05:58:37.252Z,95.97
2023-05-12T05:59:37.196Z,96.27
2023-05-12T06:00:37.178Z,96.37
2023-05-12T06:01:37.172Z,96.37
2023-05-12T06:02:37.215Z,96.37
2023-05-12T06:03:37.247Z,96.33
2023-05-12T06:04:37.175Z,96.43
2023-05-12T06:05:37.113Z,96.53
2023-05-12T06:06:37.089Z,96.63
2023-05-12T06:07:37.069Z,96.83
2023-05-12T06:08:37.106Z,96.12
2023-05-12T06:09:37.040Z,96.02
2023-05-12T06:10:37.042Z,95.72
2023-05-12T06:11:37.016Z,95.41
2023-05-12T06:12:37.002Z,95.62
2023-05-12T06:13:37.153Z,95.82
2023-05-12T06:14:37.009Z,95.82
2023-05-12T06:15:36.949Z,96.02
2023-05-12T06:16:37.035Z,96.23
2023-05-12T06:17:36.986Z,96.12
2023-05-12T06:18:37.037Z,96.12
2023-05-12T06:19:36.924Z,96.23
2023-05-12T06:20:36.910Z,96.33
2023-05-12T06:21:36.901Z,95.92
2023-05-12T06:22:36.933Z,95.62
2023-05-12T06:23:36.889Z,95.01
2023-05-12T06:24:36.865Z,94.29
2023-05-12T06:25:36.898Z,94.40
2023-05-12T06:26:36.877Z,95.01
2023-05-12T06:27:36.966Z,95.31
2023-05-12T06:28:36.817Z,95.41
2023-05-12T06:29:37.739Z,95.51
2023-05-12T06:30:36.827Z,95.51
2023-05-12T06:31:36.770Z,95.51
2023-05-12T06:32:36.828Z,94.80
2023-05-12T06:33:36.752Z,94.56
2023-05-12T06:34:36.753Z,94.86
2023-05-12T06:35:36.723Z,94.35
2023-05-12T06:36:36.729Z,94.15
2023-05-12T06:37:36.672Z,94.41
2023-05-12T06:38:36.664Z,93.33
2023-05-12T06:39:36.667Z,93.29
2023-05-12T06:40:36.671Z,93.80
2023-05-12T06:41:36.643Z,94.21
2023-05-12T06:42:36.662Z,94.31
2023-05-12T06:43:36.611Z,94.41
2023-05-12T06:44:36.616Z,94.31
2023-05-12T06:45:36.627Z,94.00
2023-05-12T06:46:36.616Z,93.86
2023-05-12T06:47:36.577Z,93.96
2023-05-12T06:48:36.582Z,94.17
2023-05-12T06:49:36.562Z,93.65
2023-05-12T06:50:36.542Z,92.18
2023-05-12T06:51:36.492Z,92.07
2023-05-12T06:52:36.496Z,92.18
2023-05-12T06:53:36.507Z,92.18
2023-05-12T06:54:36.478Z,91.97
2023-05-12T06:55:36.450Z,91.93
2023-05-12T06:56:36.438Z,91.52
2023-05-12T06:57:36.471Z,91.52
2023-05-12T06:58:36.438Z,91.63
2023-05-12T06:59:36.392Z,91.52
2023-05-12T07:00:36.421Z,91.83
2023-05-12T07:01:36.409Z,91.93
2023-05-12T07:02:36.421Z,91.93
2023-05-12T07:03:36.393Z,91.02
2023-05-12T07:04:36.329Z,90.31
2023-05-12T07:05:36.374Z,90.92
2023-05-12T07:06:36.362Z,91.52
2023-05-12T07:07:36.303Z,91.52
2023-05-12T07:08:36.310Z,91.63
2023-05-12T07:09:36.249Z,91.63
2023-05-12T07:10:36.254Z,90.61
2023-05-12T07:11:36.251Z,90.81
2023-05-12T07:12:36.251Z,90.92
2023-05-12T07:13:36.246Z,90.92
2023-05-12T07:14:36.202Z,91.22
2023-05-12T07:15:36.177Z,91.52
2023-05-12T07:16:36.254Z,91.02
2023-05-12T07:17:36.248Z,90.41
2023-05-12T07:18:36.245Z,90.51
2023-05-12T07:19:36.140Z,90.51
2023-05-12T07:20:36.140Z,90.47
2023-05-12T07:21:36.092Z,90.57
2023-05-12T07:22:38.473Z,90.47
2023-05-12T07:23:36.122Z,90.57
2023-05-12T07:24:36.092Z,90.06
2023-05-12T07:25:36.171Z,89.76
2023-05-12T07:26:36.064Z,89.76
2023-05-12T07:27:36.020Z,89.15
2023-05-12T07:28:36.050Z,89.25
2023-05-12T07:29:36.009Z,89.65
2023-05-12T07:30:35.990Z,89.86
2023-05-12T07:31:36.003Z,90.47
2023-05-12T07:32:35.974Z,90.06
2023-05-12T07:33:35.957Z,89.76
2023-05-12T07:34:35.990Z,89.55
2023-05-12T07:35:35.916Z,89.61
2023-05-12T07:36:35.930Z,89.01
2023-05-12T07:37:35.883Z,88.54
2023-05-12T07:38:35.908Z,88.40
2023-05-12T07:39:35.884Z,87.99
2023-05-12T07:40:35.905Z,87.63
2023-05-12T07:41:35.835Z,87.99
2023-05-12T07:42:35.826Z,88.70
2023-05-12T07:43:35.837Z,88.90
2023-05-12T07:44:35.808Z,88.70
2023-05-12T07:45:35.820Z,88.90
2023-05-12T07:46:35.816Z,88.66
2023-05-12T07:47:35.781Z,88.66
2023-05-12T07:48:35.782Z,88.25
2023-05-12T07:49:35.761Z,87.74
2023-05-12T07:50:35.752Z,87.74
2023-05-12T07:51:35.710Z,88.15
2023-05-12T07:52:35.748Z,88.05
2023-05-12T07:53:35.722Z,87.85
2023-05-12T07:54:35.668Z,87.34
2023-05-12T07:55:35.652Z,86.94
2023-05-12T07:56:35.688Z,87.34
2023-05-12T07:57:35.620Z,87.74
2023-05-12T07:58:35.649Z,87.54
2023-05-12T07:59:35.644Z,88.05
2023-05-12T08:00:35.633Z,88.46
2023-05-12T08:01:35.574Z,88.25
2023-05-12T08:02:35.634Z,86.63
2023-05-12T08:03:35.676Z,87.10
2023-05-12T08:04:35.647Z,86.90
2023-05-12T08:05:35.533Z,87.81
2023-05-12T08:06:35.532Z,86.90
2023-05-12T08:07:35.520Z,86.69
2023-05-12T08:08:35.528Z,86.73
2023-05-12T08:09:35.466Z,87.04
2023-05-12T08:10:35.491Z,86.83
2023-05-12T08:11:35.441Z,86.90
2023-05-12T08:12:35.446Z,87.00
2023-05-12T08:13:35.448Z,86.90
2023-05-12T08:14:35.438Z,86.90
2023-05-12T08:15:35.413Z,86.59
2023-05-12T08:16:35.426Z,86.02
2023-05-12T08:17:35.444Z,86.19
2023-05-12T08:18:35.404Z,86.90
2023-05-12T08:19:35.394Z,86.90
2023-05-12T08:20:35.356Z,86.08
2023-05-12T08:21:35.331Z,85.48
2023-05-12T08:22:35.319Z,85.68
2023-05-12T08:23:35.292Z,86.29
2023-05-12T08:24:35.303Z,86.39
2023-05-12T08:25:35.306Z,85.99
2023-05-12T08:26:36.017Z,86.39
2023-05-12T08:27:35.300Z,85.48
2023-05-12T08:28:35.209Z,85.17
2023-05-12T08:29:35.272Z,84.87
2023-05-12T08:30:35.209Z,84.67
2023-05-12T08:31:35.341Z,84.06
2023-05-12T08:32:35.181Z,84.87
2023-05-12T08:33:35.183Z,85.27
2023-05-12T08:34:35.207Z,85.38
2023-05-12T08:35:35.123Z,85.58
2023-05-12T08:36:35.134Z,85.07
2023-05-12T08:37:35.246Z,84.36
2023-05-12T08:38:35.194Z,84.56
2023-05-12T08:39:35.134Z,84.56
2023-05-12T08:40:35.157Z,84.06
2023-05-12T08:41:35.176Z,84.77
2023-05-12T08:42:35.042Z,85.24
2023-05-12T08:43:35.048Z,85.44
2023-05-12T08:44:35.025Z,85.64
2023-05-12T08:45:35.025Z,85.74
2023-05-12T08:46:35.130Z,85.94
2023-05-12T08:47:35.058Z,85.03
2023-05-12T08:48:34.991Z,85.24
2023-05-12T08:49:34.969Z,84.93
2023-05-12T08:50:34.958Z,84.63
2023-05-12T08:51:34.951Z,84.53
2023-05-12T08:52:34.940Z,84.42
2023-05-12T08:53:34.920Z,84.22
2023-05-12T08:54:39.935Z,84.42
2023-05-12T08:55:39.681Z,84.83
2023-05-12T08:57:35.046Z,83.61
2023-05-12T08:58:40.887Z,84.12
2023-05-12T08:59:35.964Z,83.82
2023-05-12T09:00:34.801Z,83.61
2023-05-12T09:01:36.758Z,83.88
2023-05-12T09:02:48.284Z,83.58
2023-05-12T09:03:35.869Z,83.17
2023-05-12T09:04:34.840Z,83.17
2023-05-12T09:05:34.892Z,82.76
2023-05-12T09:06:34.758Z,82.26
2023-05-12T09:07:34.759Z,81.85
2023-05-12T09:08:34.761Z,82.46
2023-05-12T09:09:34.679Z,83.07
2023-05-12T09:10:35.732Z,82.16
2023-05-12T09:11:34.700Z,82.36
2023-05-12T09:12:34.656Z,82.32
2023-05-12T09:13:34.629Z,82.73
2023-05-12T09:14:34.626Z,82.93
2023-05-12T09:15:34.598Z,82.42
2023-05-12T09:16:34.680Z,81.31
2023-05-12T09:17:34.646Z,81.92
2023-05-12T09:18:34.821Z,81.78
2023-05-12T09:19:34.570Z,82.39
2023-05-12T09:20:34.545Z,82.59
2023-05-12T09:21:34.572Z,82.39
2023-05-12T09:22:34.528Z,82.49
2023-05-12T09:23:34.530Z,82.59
2023-05-12T09:24:34.536Z,82.28
2023-05-12T09:25:34.466Z,82.39
2023-05-12T09:26:34.466Z,82.89
2023-05-12T09:27:34.447Z,82.89
2023-05-12T09:28:34.420Z,82.18
2023-05-12T09:29:37.533Z,82.89
2023-05-12T09:30:35.431Z,82.08
2023-05-12T09:31:34.505Z,82.79
2023-05-12T09:32:34.496Z,82.59
2023-05-12T09:33:34.394Z,82.99
2023-05-12T09:34:34.399Z,83.19
2023-05-12T09:35:34.367Z,83.86
2023-05-12T09:36:34.329Z,83.36
2023-05-12T09:37:34.346Z,81.84
2023-05-12T09:38:34.289Z,81.03
2023-05-12T09:39:34.331Z,81.64
2023-05-12T09:40:34.422Z,80.93
2023-05-12T09:41:34.266Z,80.12
2023-05-12T09:42:34.254Z,78.50
2023-05-12T09:43:34.243Z,79.21
2023-05-12T09:44:34.266Z,79.41
2023-05-12T09:45:34.292Z,80.29
2023-05-12T09:46:34.263Z,78.77
2023-05-12T09:47:34.417Z,79.68
2023-05-12T09:48:34.202Z,78.88
2023-05-12T09:49:34.174Z,79.08
2023-05-12T09:50:44.262Z,80.19
2023-05-12T09:51:35.115Z,79.68
2023-05-12T09:52:34.112Z,79.28
2023-05-12T09:53:34.102Z,79.48
2023-05-12T09:54:34.166Z,79.99
2023-05-12T09:55:34.089Z,80.29
2023-05-12T09:56:34.079Z,79.58
2023-05-12T09:57:34.080Z,79.28
2023-05-12T09:58:34.076Z,79.08
2023-05-12T09:59:34.077Z,79.38
2023-05-12T10:00:46.603Z,78.77
2023-05-12T10:01:35.297Z,78.77
2023-05-12T10:02:34.171Z,79.17
2023-05-12T10:03:33.992Z,79.08
2023-05-12T10:04:34.067Z,77.76
2023-05-12T10:05:33.981Z,78.47
2023-05-12T10:06:34.044Z,78.27
2023-05-12T10:07:33.959Z,78.37
2023-05-12T10:08:33.913Z,78.20
2023-05-12T10:09:33.972Z,78.91
2023-05-12T10:10:33.889Z,78.97
2023-05-12T10:11:33.869Z,79.58
2023-05-12T10:12:33.856Z,79.48
2023-05-12T10:13:33.868Z,78.88
2023-05-12T10:14:33.837Z,77.97
2023-05-12T10:15:33.823Z,77.15
2023-05-12T10:16:33.826Z,77.26
2023-05-12T10:17:33.839Z,77.15
2023-05-12T10:18:33.794Z,76.31
2023-05-12T10:19:33.798Z,76.82
2023-05-12T10:20:33.743Z,76.42
2023-05-12T10:21:33.741Z,76.72
2023-05-12T10:22:33.752Z,76.62
2023-05-12T10:23:35.887Z,76.62
2023-05-12T10:24:33.715Z,76.31
2023-05-12T10:25:33.699Z,77.19
2023-05-12T10:26:33.661Z,77.28
2023-05-12T10:27:33.659Z,76.48
2023-05-12T10:28:33.626Z,75.98
2023-05-12T10:29:33.660Z,76.48
2023-05-12T10:30:33.670Z,75.57
2023-05-12T10:31:33.660Z,75.43
2023-05-12T10:32:33.654Z,75.23
2023-05-12T10:33:33.633Z,75.34
2023-05-12T10:34:33.579Z,75.03
2023-05-12T10:35:33.571Z,74.83
2023-05-12T10:36:33.581Z,75.50
2023-05-12T10:37:33.575Z,74.79
2023-05-12T10:38:33.511Z,73.99
2023-05-12T10:39:33.486Z,74.96
2023-05-12T10:40:33.525Z,75.67
2023-05-12T10:41:33.501Z,73.55
2023-05-12T10:42:33.481Z,73.14
2023-05-12T10:43:33.475Z,73.85
2023-05-12T10:44:33.423Z,72.64
2023-05-12T10:45:33.439Z,73.35
2023-05-12T10:46:33.425Z,72.85
2023-05-12T10:47:33.462Z,72.74
2023-05-12T10:48:33.387Z,74.22
2023-05-12T10:49:33.363Z,73.61
2023-05-12T10:50:33.343Z,73.41
2023-05-12T10:51:33.387Z,74.52
2023-05-12T10:52:33.326Z,72.71
2023-05-12T10:53:47.811Z,72.00
2023-05-12T10:54:34.292Z,71.60
2023-05-12T10:55:33.356Z,71.30
2023-05-12T10:56:33.577Z,70.90
2023-05-12T10:57:33.997Z,71.60
2023-05-12T10:58:33.529Z,71.80
2023-05-12T10:59:33.812Z,71.50
2023-05-12T11:00:33.834Z,73.01
2023-05-12T11:01:33.549Z,71.60
2023-05-12T11:02:34.451Z,72.31
2023-05-12T11:03:33.569Z,71.36
2023-05-12T11:04:33.843Z,72.88
2023-05-12T11:05:33.599Z,72.27
2023-05-12T11:06:34.226Z,71.53
2023-05-12T11:07:33.454Z,70.93
2023-05-12T11:08:34.002Z,69.92
2023-05-12T11:09:33.215Z,68.82
2023-05-12T11:10:33.649Z,69.12
2023-05-12T11:11:34.153Z,67.91
2023-05-12T11:12:33.388Z,68.62
2023-05-12T11:13:33.080Z,68.91
2023-05-12T11:14:33.050Z,69.02
2023-05-12T11:15:33.059Z,70.83
2023-05-12T11:16:33.057Z,71.13
2023-05-12T11:17:33.145Z,70.12
2023-05-12T11:18:33.001Z,70.59
2023-05-12T11:19:33.019Z,68.18
2023-05-12T11:20:32.951Z,67.47
2023-05-12T11:21:32.970Z,67.81
2023-05-12T11:22:32.952Z,67.78
2023-05-12T11:23:32.978Z,68.28
2023-05-12T11:24:32.948Z,68.08
2023-05-12T11:25:32.957Z,68.38
2023-05-12T11:26:32.885Z,67.98
2023-05-12T11:27:32.892Z,68.48
2023-05-12T11:28:32.876Z,68.98
2023-05-12T11:29:32.862Z,69.69
2023-05-12T11:30:33.139Z,68.31
2023-05-12T11:31:32.884Z,66.60
2023-05-12T11:32:32.861Z,66.77
2023-05-12T11:33:32.801Z,65.26
2023-05-12T11:34:32.774Z,65.87
2023-05-12T11:35:32.800Z,65.97
2023-05-12T11:36:32.740Z,66.07
2023-05-12T11:37:32.738Z,68.68
2023-05-12T11:38:32.736Z,63.05
2023-05-12T11:39:32.749Z,64.06
2023-05-12T11:40:32.728Z,61.04
2023-05-12T11:41:32.726Z,62.45
2023-05-12T11:42:32.672Z,62.75
2023-05-12T11:43:32.674Z,63.73
2023-05-12T11:44:32.658Z,63.42
2023-05-12T11:45:32.708Z,64.23
2023-05-12T11:46:32.610Z,62.52
2023-05-12T11:47:32.794Z,62.69
2023-05-12T11:48:32.604Z,62.39
2023-05-12T11:49:32.610Z,62.79
2023-05-12T11:50:32.557Z,62.99
2023-05-12T11:51:32.586Z,62.56
2023-05-12T11:52:32.554Z,62.96
2023-05-12T11:53:32.570Z,61.25
2023-05-12T11:54:32.519Z,60.35
2023-05-12T11:55:32.522Z,63.13
2023-05-12T11:56:32.496Z,60.42
2023-05-12T11:57:32.530Z,61.83
2023-05-12T11:58:33.510Z,61.50
2023-05-12T11:59:32.489Z,62.10
2023-05-12T12:00:32.454Z,62.90
2023-05-12T12:01:32.462Z,61.67
2023-05-12T12:02:32.513Z,61.87
2023-05-12T12:03:32.540Z,60.06
2023-05-12T12:04:32.493Z,60.27
2023-05-12T12:05:32.380Z,59.86
2023-05-12T12:06:32.385Z,61.04
2023-05-12T12:07:32.360Z,60.74
2023-05-12T12:08:32.391Z,59.74
2023-05-12T12:09:32.375Z,61.54
2023-05-12T12:10:32.297Z,60.27
2023-05-12T12:11:32.348Z,61.57
2023-05-12T12:12:32.278Z,62.07
2023-05-12T12:13:32.348Z,62.00
2023-05-12T12:14:32.272Z,61.80
2023-05-12T12:15:32.262Z,62.63
2023-05-12T12:16:32.327Z,63.64
2023-05-12T12:17:32.261Z,63.13
2023-05-12T12:18:32.224Z,62.96
2023-05-12T12:19:32.254Z,63.56
2023-05-12T12:20:32.222Z,63.70
2023-05-12T12:21:32.192Z,64.50
2023-05-12T12:22:32.138Z,64.70
2023-05-12T12:23:43.882Z,65.44
2023-05-12T12:24:33.192Z,65.44
2023-05-12T12:25:32.154Z,65.84
2023-05-12T12:26:32.153Z,66.57
2023-05-12T12:27:32.119Z,67.07
2023-05-12T12:28:32.147Z,67.98
2023-05-12T12:29:32.076Z,68.08
2023-05-12T12:30:32.081Z,67.78
2023-05-12T12:31:32.287Z,67.58
2023-05-12T12:32:32.082Z,67.21
2023-05-12T12:33:31.988Z,67.11
2023-05-12T12:34:32.028Z,67.11
2023-05-12T12:35:32.000Z,67.61
2023-05-12T12:36:32.044Z,67.91
2023-05-12T12:37:31.977Z,67.61
2023-05-12T12:38:31.963Z,68.71
2023-05-12T12:39:31.955Z,68.91
2023-05-12T12:40:31.961Z,68.41
2023-05-12T12:41:31.914Z,69.62
2023-05-12T12:42:31.928Z,68.82
2023-05-12T12:43:31.919Z,69.22
2023-05-12T12:44:31.861Z,69.42
2023-05-12T12:45:31.872Z,69.02
2023-05-12T12:46:31.887Z,69.15
2023-05-12T12:47:31.891Z,69.85
2023-05-12T12:48:31.858Z,70.36
2023-05-12T12:49:31.811Z,69.65
2023-05-12T12:50:31.786Z,69.85
2023-05-12T12:51:44.456Z,70.96
2023-05-12T12:52:32.790Z,72.03
2023-05-12T12:53:31.750Z,72.84
2023-05-12T12:54:31.728Z,72.14